Time;durP1;ratioP1;P1;durP2;ratioP2;P2;SDS_P1;SDS_P2;PMS_P1;PMS_P2;Temp;Humidity;BMP_temperature;BMP_pressure;BME280_temperature;BME280_humidity;BME280_pressure;Samples;Min_cycle;Max_cycle;Signal;HPM_P1;HPM_P2
2021/10/05 00:01:59;;;;;;;5.37;4.33;;;10.60;99.90;;;;;;5139849;27;20458;-53
2021/10/05 00:04:31;;;;;;;4.43;4.03;;;10.50;99.90;;;;;;5139871;27;20482;-53
2021/10/05 00:06:58;;;;;;;4.80;3.60;;;10.50;99.90;;;;;;5139400;27;20943;-54
2021/10/05 00:09:25;;;;;;;6.33;4.77;;;10.50;99.90;;;;;;5138975;27;20462;-56
2021/10/05 00:11:52;;;;;;;5.10;3.70;;;10.50;99.90;;;;;;5138635;27;20470;-48
2021/10/05 00:14:19;;;;;;;4.60;3.93;;;10.50;99.90;;;;;;5138707;27;20889;-52
2021/10/05 00:16:47;;;;;;;5.57;3.87;;;10.50;99.90;;;;;;5138835;27;20571;-56
2021/10/05 00:19:16;;;;;;;4.23;3.73;;;10.50;99.90;;;;;;5138527;27;20881;-56
2021/10/05 00:21:44;;;;;;;6.57;3.87;;;10.40;99.90;;;;;;5139346;27;20459;-50
2021/10/05 00:24:12;;;;;;;5.17;4.03;;;10.40;99.90;;;;;;5139583;27;20508;-54
2021/10/05 00:26:39;;;;;;;4.47;3.30;;;10.40;99.90;;;;;;5139347;27;20454;-56
2021/10/05 00:29:06;;;;;;;4.00;3.60;;;10.40;99.90;;;;;;5139693;27;20454;-51
2021/10/05 00:31:33;;;;;;;3.77;3.47;;;10.30;99.90;;;;;;5139557;27;20455;-53
2021/10/05 00:34:00;;;;;;;3.60;2.93;;;10.30;1.00;;;;;;5139130;27;20433;-54
2021/10/05 00:36:27;;;;;;;3.47;3.27;;;10.30;1.00;;;;;;5140053;27;20461;-54
2021/10/05 00:38:55;;;;;;;5.80;3.80;;;10.30;1.00;;;;;;5140044;27;20462;-51
2021/10/05 00:41:23;;;;;;;4.70;3.43;;;10.20;1.00;;;;;;5140152;27;20442;-57
2021/10/05 00:43:50;;;;;;;4.43;4.00;;;10.20;1.00;;;;;;5139440;27;20761;-54
2021/10/05 00:46:21;;;;;;;3.57;3.27;;;10.20;1.00;;;;;;5139679;27;20458;-54
2021/10/05 00:48:48;;;;;;;4.77;3.57;;;10.20;1.00;;;;;;5139902;27;20468;-53
2021/10/05 00:51:17;;;;;;;4.73;3.77;;;10.30;7.00;;;;;;5140176;27;20853;-56
2021/10/05 00:53:44;;;;;;;5.17;3.17;;;10.30;1.00;;;;;;5139301;27;20458;-56
2021/10/05 00:56:13;;;;;;;3.50;3.20;;;10.30;1.00;;;;;;5139691;27;20843;-52
2021/10/05 00:58:43;;;;;;;3.60;3.30;;;10.30;1.00;;;;;;5139604;27;20836;-55
2021/10/05 01:01:12;;;;;;;4.93;3.00;;;10.30;57.00;;;;;;5139657;27;20549;-52
2021/10/05 01:03:40;;;;;;;3.53;3.23;;;10.30;99.90;;;;;;5139304;27;20531;-55
2021/10/05 01:06:07;;;;;;;3.50;3.20;;;10.40;99.90;;;;;;5139379;27;20487;-51
2021/10/05 01:08:34;;;;;;;3.90;3.33;;;10.40;99.90;;;;;;5139340;27;20482;-54
2021/10/05 01:11:01;;;;;;;4.30;3.80;;;10.40;99.90;;;;;;5128102;27;20454;-56
2021/10/05 01:13:30;;;;;;;3.43;3.13;;;10.40;99.90;;;;;;5139196;27;20459;-51
2021/10/05 01:15:57;;;;;;;3.23;2.93;;;10.40;99.90;;;;;;5139062;27;20454;-56
2021/10/05 01:18:24;;;;;;;7.50;3.13;;;10.40;99.90;;;;;;5138208;27;20455;-54
2021/10/05 01:21:03;;;;;;;3.93;3.53;;;10.40;99.90;;;;;;5139444;27;20865;-55
2021/10/05 01:23:33;;;;;;;3.10;2.90;;;10.30;99.90;;;;;;5139014;27;20464;-53
2021/10/05 01:26:01;;;;;;;3.63;3.30;;;10.30;99.90;;;;;;5139112;27;20883;-56
2021/10/05 01:28:28;;;;;;;4.63;3.90;;;10.30;99.90;;;;;;5139194;27;20555;-54
2021/10/05 01:30:55;;;;;;;3.63;3.30;;;10.40;99.90;;;;;;5138355;27;20458;-51
2021/10/05 01:33:30;;;;;;;4.20;3.13;;;10.30;99.90;;;;;;5138870;27;20549;-57
2021/10/05 01:35:57;;;;;;;4.10;2.63;;;10.20;99.90;;;;;;5138399;27;20461;-57
2021/10/05 01:38:25;;;;;;;4.30;3.00;;;10.20;1.00;;;;;;5138799;27;20512;-56
2021/10/05 01:40:53;;;;;;;4.23;2.87;;;10.20;1.00;;;;;;5138631;27;20805;-52
2021/10/05 01:43:20;;;;;;;5.10;3.17;;;10.10;1.00;;;;;;5138622;27;20511;-48
2021/10/05 01:45:49;;;;;;;3.40;3.00;;;10.00;1.00;;;;;;5138689;27;20459;-53
2021/10/05 01:48:16;;;;;;;3.23;2.93;;;9.90;1.00;;;;;;5138364;27;20462;-57
2021/10/05 01:50:43;;;;;;;5.20;3.40;;;9.80;99.90;;;;;;5137863;27;20486;-56
2021/10/05 01:53:10;;;;;;;4.03;3.33;;;9.80;99.90;;;;;;5138614;27;20527;-56
2021/10/05 01:55:39;;;;;;;4.77;3.30;;;9.80;1.00;;;;;;5138686;27;20462;-54
2021/10/05 01:58:06;;;;;;;3.63;3.13;;;9.80;1.00;;;;;;5138372;27;20557;-54
2021/10/05 02:00:33;;;;;;;3.73;3.43;;;9.80;1.00;;;;;;5138288;27;20454;-57
2021/10/05 02:03:00;;;;;;;3.37;3.07;;;9.90;1.00;;;;;;5137935;27;20539;-57
2021/10/05 02:05:29;;;;;;;3.63;3.33;;;9.90;99.90;;;;;;5138443;27;20455;-57
2021/10/05 02:07:56;;;;;;;4.43;3.57;;;9.90;99.90;;;;;;5137923;27;20454;-56
2021/10/05 02:10:23;;;;;;;4.87;3.90;;;10.00;99.90;;;;;;5137327;27;20429;-57
2021/10/05 02:12:51;;;;;;;4.33;3.47;;;10.00;1.00;;;;;;5137926;27;20462;-53
2021/10/05 02:15:18;;;;;;;3.80;3.17;;;10.00;41.30;;;;;;5137994;27;20433;-57
2021/10/05 02:17:45;;;;;;;3.70;3.10;;;10.00;99.90;;;;;;5138152;27;20490;-54
2021/10/05 02:20:12;;;;;;;3.77;3.40;;;10.10;99.90;;;;;;5137702;27;20462;-56
2021/10/05 02:22:39;;;;;;;4.50;4.10;;;10.00;99.90;;;;;;5137844;27;20900;-54
2021/10/05 02:25:08;;;;;;;3.83;3.50;;;10.00;99.90;;;;;;5137748;27;20433;-52
2021/10/05 02:27:35;;;;;;;4.40;4.00;;;10.00;99.90;;;;;;5137422;27;20827;-54
2021/10/05 02:30:05;;;;;;;4.33;3.93;;;10.00;1.00;;;;;;5137865;27;20515;-56
2021/10/05 02:32:32;;;;;;;4.10;3.80;;;10.00;77.70;;;;;;5137779;27;20441;-55
2021/10/05 02:34:59;;;;;;;4.43;4.03;;;10.00;99.90;;;;;;5137713;27;20852;-57
2021/10/05 02:37:29;;;;;;;5.90;4.90;;;10.10;99.90;;;;;;5137930;27;20486;-55
2021/10/05 02:39:56;;;;;;;4.80;4.40;;;10.10;99.90;;;;;;5137903;27;20527;-57
2021/10/05 02:42:24;;;;;;;4.83;4.43;;;10.10;99.90;;;;;;5137463;27;20465;-54
2021/10/05 02:44:53;;;;;;;4.57;4.17;;;10.10;99.90;;;;;;5137864;27;20465;-57
2021/10/05 02:47:21;;;;;;;4.70;3.93;;;10.10;99.90;;;;;;5138172;27;20440;-58
2021/10/05 02:49:48;;;;;;;4.40;4.00;;;10.10;99.90;;;;;;5137351;27;20462;-56
2021/10/05 02:52:21;;;;;;;4.30;3.33;;;10.10;19.90;;;;;;5137429;27;20868;-57
2021/10/05 02:54:49;;;;;;;6.33;3.97;;;10.10;99.90;;;;;;5137773;28;20462;-58
2021/10/05 02:57:17;;;;;;;4.00;3.60;;;10.20;99.90;;;;;;5137730;28;20759;-57
2021/10/05 02:59:46;;;;;;;4.73;4.07;;;10.10;99.90;;;;;;5137403;28;20481;-55
2021/10/05 03:02:13;;;;;;;5.47;4.97;;;10.20;99.90;;;;;;5137338;28;20798;-57
2021/10/05 03:04:42;;;;;;;4.57;4.17;;;10.20;84.90;;;;;;5137437;28;20494;-58
2021/10/05 03:07:09;;;;;;;4.30;3.90;;;10.20;99.90;;;;;;5137955;28;20845;-56
2021/10/05 03:09:37;;;;;;;4.80;4.40;;;10.20;99.90;;;;;;5134775;28;20458;-55
2021/10/05 03:12:05;;;;;;;5.57;5.07;;;10.20;99.90;;;;;;5131237;28;20485;-56
2021/10/05 03:14:32;;;;;;;5.00;4.50;;;10.30;1.00;;;;;;5137217;28;20462;-54
2021/10/05 03:16:59;;;;;;;5.60;5.10;;;10.30;99.90;;;;;;5137206;28;20490;-56
2021/10/05 03:19:26;;;;;;;7.43;5.57;;;10.30;1.00;;;;;;5137549;28;20482;-57
2021/10/05 03:21:56;;;;;;;6.10;5.60;;;10.30;99.90;;;;;;5137051;28;20881;-56
2021/10/05 03:24:26;;;;;;;6.50;5.67;;;10.30;99.90;;;;;;5132411;28;20429;-54
2021/10/05 03:26:54;;;;;;;6.40;5.90;;;10.40;99.90;;;;;;5137124;28;20459;-57
2021/10/05 03:29:21;;;;;;;6.60;6.03;;;10.40;99.90;;;;;;5137325;28;20462;-58
2021/10/05 03:31:50;;;;;;;6.40;5.80;;;10.40;1.00;;;;;;5136895;28;20458;-57
2021/10/05 03:34:21;;;;;;;7.57;6.87;;;10.40;1.00;;;;;;5137098;28;20507;-57
2021/10/05 03:36:48;;;;;;;7.13;6.53;;;10.40;99.90;;;;;;5136911;28;20497;-55
2021/10/05 03:39:17;;;;;;;7.17;6.40;;;10.40;1.00;;;;;;5137403;28;20801;-55
2021/10/05 03:41:44;;;;;;;6.50;5.90;;;10.40;1.00;;;;;;5137505;27;20490;-56
2021/10/05 03:44:11;;;;;;;8.10;7.40;;;10.40;1.00;;;;;;5141153;27;20865;-58
2021/10/05 03:46:38;;;;;;;6.60;6.00;;;10.40;1.00;;;;;;5140765;27;20523;-57
2021/10/05 03:49:06;;;;;;;7.60;6.90;;;10.40;1.00;;;;;;5141264;27;20825;-54
2021/10/05 03:51:33;;;;;;;8.17;7.30;;;10.40;1.00;;;;;;5141046;27;20819;-55
2021/10/05 03:54:00;;;;;;;7.53;6.83;;;10.50;1.00;;;;;;5140756;27;20437;-56
2021/10/05 03:56:29;;;;;;;8.50;7.10;;;10.50;1.00;;;;;;5140615;27;20458;-57
2021/10/05 03:58:56;;;;;;;7.93;7.13;;;10.40;99.90;;;;;;5140146;27;20486;-57
2021/10/05 04:01:23;;;;;;;6.83;6.20;;;10.40;17.90;;;;;;5141104;27;20433;-58
2021/10/05 04:03:50;;;;;;;8.20;6.60;;;10.40;91.80;;;;;;5140232;27;20456;-56
2021/10/05 04:06:17;;;;;;;7.03;6.37;;;10.30;99.90;;;;;;5140693;27;20531;-56
2021/10/05 04:08:44;;;;;;;7.33;6.30;;;10.30;1.00;;;;;;5140783;27;20482;-57
2021/10/05 04:11:11;;;;;;;7.90;6.87;;;10.30;99.90;;;;;;5124022;27;20894;-57
2021/10/05 04:13:39;;;;;;;8.07;7.20;;;10.30;99.90;;;;;;5136917;27;20467;-55
2021/10/05 04:16:07;;;;;;;8.60;7.53;;;10.20;1.00;;;;;;5139915;27;20497;-57
2021/10/05 04:18:34;;;;;;;9.17;8.20;;;10.20;1.00;;;;;;5140263;27;20583;-53
2021/10/05 04:21:01;;;;;;;12.07;8.33;;;10.30;84.20;;;;;;5140192;27;20889;-55
2021/10/05 04:23:28;;;;;;;10.23;8.23;;;10.30;99.90;;;;;;5140410;27;20458;-54
2021/10/05 04:25:55;;;;;;;9.27;8.43;;;10.30;99.90;;;;;;5139863;27;20433;-59
2021/10/05 04:28:22;;;;;;;10.10;9.17;;;10.30;99.90;;;;;;5140155;27;20429;-58
2021/10/05 04:30:51;;;;;;;10.50;9.47;;;10.30;99.90;;;;;;5140022;27;20762;-57
2021/10/05 04:33:18;;;;;;;11.40;10.20;;;10.30;99.90;;;;;;5140119;27;20462;-54
2021/10/05 04:35:45;;;;;;;10.40;9.30;;;10.30;99.90;;;;;;5139765;27;20433;-55
2021/10/05 04:38:12;;;;;;;11.80;10.43;;;10.30;99.90;;;;;;5139861;27;20547;-58
2021/10/05 04:40:39;;;;;;;9.97;9.07;;;10.30;99.90;;;;;;5139974;27;20519;-57
2021/10/05 04:43:06;;;;;;;10.07;9.10;;;10.40;99.90;;;;;;5139773;27;20482;-58
2021/10/05 04:45:33;;;;;;;11.40;10.20;;;10.40;99.90;;;;;;5140007;27;20802;-57
2021/10/05 04:48:05;;;;;;;11.43;10.33;;;10.40;99.90;;;;;;5139639;27;20459;-57
2021/10/05 04:50:32;;;;;;;11.30;9.90;;;10.40;99.90;;;;;;5139891;27;20855;-56
2021/10/05 04:52:59;;;;;;;10.63;9.63;;;10.40;99.90;;;;;;5138923;27;21036;-58
2021/10/05 04:55:26;;;;;;;10.60;9.60;;;10.40;99.90;;;;;;5139682;27;20869;-56
2021/10/05 04:57:54;;;;;;;10.43;9.37;;;10.40;99.90;;;;;;5139068;27;20540;-55
2021/10/05 05:00:21;;;;;;;10.80;9.70;;;10.40;99.90;;;;;;5139387;27;20459;-56
2021/10/05 05:02:48;;;;;;;11.67;9.83;;;10.40;99.90;;;;;;5139149;27;20458;-57
2021/10/05 05:05:16;;;;;;;11.23;10.10;;;10.30;99.90;;;;;;5139284;27;20462;-58
2021/10/05 05:07:43;;;;;;;12.93;10.40;;;10.40;99.90;;;;;;5137527;27;20455;-56
2021/10/05 05:10:10;;;;;;;11.57;10.17;;;10.40;99.90;;;;;;5131607;27;20528;-56
2021/10/05 05:12:40;;;;;;;10.50;9.50;;;10.40;99.90;;;;;;5136357;27;20462;-56
2021/10/05 05:15:08;;;;;;;11.13;10.03;;;10.40;99.90;;;;;;5139443;27;20524;-57
2021/10/05 05:17:35;;;;;;;11.70;9.93;;;10.40;99.90;;;;;;5139458;27;20486;-57
2021/10/05 05:20:06;;;;;;;12.33;11.13;;;10.40;99.90;;;;;;5138960;27;20458;-52
2021/10/05 05:22:34;;;;;;;10.97;9.87;;;10.40;99.90;;;;;;5139200;27;20541;-57
2021/10/05 05:25:01;;;;;;;11.40;10.30;;;10.40;99.90;;;;;;5139106;27;20459;-56
2021/10/05 05:27:28;;;;;;;13.77;12.37;;;10.40;99.90;;;;;;5139245;27;20478;-57
2021/10/05 05:29:55;;;;;;;51.60;38.70;;;10.40;99.90;;;;;;5138569;27;20507;-58
2021/10/05 05:32:22;;;;;;;18.27;15.93;;;10.40;99.90;;;;;;5138387;27;20433;-57
2021/10/05 05:34:49;;;;;;;17.20;15.37;;;10.40;99.90;;;;;;5139087;27;20503;-58
2021/10/05 05:37:18;;;;;;;12.40;11.10;;;10.50;99.90;;;;;;5138224;27;20458;-58
2021/10/05 05:39:47;;;;;;;12.20;11.00;;;10.50;99.90;;;;;;5117336;28;20512;-55
2021/10/05 05:42:14;;;;;;;14.10;12.70;;;10.50;99.90;;;;;;5116980;28;20463;-58
2021/10/05 05:44:41;;;;;;;12.13;10.93;;;10.40;99.90;;;;;;5117837;28;20479;-58
2021/10/05 05:47:17;;;;;;;11.67;10.50;;;10.40;99.90;;;;;;5117402;28;20455;-57
2021/10/05 05:49:44;;;;;;;11.37;10.27;;;10.50;99.90;;;;;;5118430;27;20459;-55
2021/10/05 05:52:11;;;;;;;14.33;12.80;;;10.50;99.90;;;;;;5137364;27;20901;-58
2021/10/05 05:54:38;;;;;;;12.87;10.47;;;10.40;99.90;;;;;;5137080;27;20482;-56
2021/10/05 05:57:07;;;;;;;17.70;15.37;;;10.50;99.90;;;;;;5137730;27;20463;-57
2021/10/05 05:59:34;;;;;;;12.50;11.13;;;10.50;99.90;;;;;;5138247;27;20465;-57
2021/10/05 06:02:04;;;;;;;14.10;12.70;;;10.50;99.90;;;;;;5137281;27;20515;-58
2021/10/05 06:04:31;;;;;;;14.03;12.63;;;10.50;99.90;;;;;;5137260;27;20937;-57
2021/10/05 06:06:58;;;;;;;11.77;10.47;;;10.60;99.90;;;;;;5137797;27;20433;-58
2021/10/05 06:09:28;;;;;;;11.20;10.13;;;10.60;99.90;;;;;;5137529;27;20916;-57
2021/10/05 06:12:01;;;;;;;10.90;9.80;;;10.60;99.90;;;;;;5137727;27;20745;-59
2021/10/05 06:14:29;;;;;;;13.30;10.80;;;10.60;99.90;;;;;;5138254;27;20462;-56
2021/10/05 06:17:04;;;;;;;11.50;10.37;;;10.70;99.90;;;;;;5138115;27;20796;-58
2021/10/05 06:19:31;;;;;;;12.17;10.17;;;10.70;74.60;;;;;;5138329;27;20789;-59
2021/10/05 06:21:58;;;;;;;11.20;10.03;;;10.70;48.80;;;;;;5137636;27;20454;-55
2021/10/05 06:24:25;;;;;;;11.77;10.63;;;10.70;1.00;;;;;;5137772;27;20873;-58
2021/10/05 06:26:55;;;;;;;11.03;9.57;;;10.80;1.00;;;;;;5137909;27;20479;-54
2021/10/05 06:29:26;;;;;;;10.43;9.43;;;10.90;1.00;;;;;;5137900;27;20425;-58
2021/10/05 06:31:54;;;;;;;10.47;9.20;;;10.90;99.90;;;;;;5137077;27;20433;-58
2021/10/05 06:34:21;;;;;;;10.50;9.50;;;10.90;99.90;;;;;;5137504;27;20478;-57
2021/10/05 06:36:48;;;;;;;9.17;8.37;;;11.00;99.90;;;;;;5137359;27;20462;-57
2021/10/05 06:39:18;;;;;;;9.00;8.10;;;11.00;1.00;;;;;;5137512;27;20486;-58
2021/10/05 06:41:45;;;;;;;9.37;7.90;;;11.10;99.90;;;;;;5127300;27;20549;-56
2021/10/05 06:44:13;;;;;;;9.27;7.80;;;11.10;99.90;;;;;;5149802;27;20454;-57
2021/10/05 06:46:45;;;;;;;10.33;8.17;;;11.20;28.20;;;;;;5137506;27;20912;-58
2021/10/05 06:49:14;;;;;;;9.20;8.03;;;11.20;99.90;;;;;;5137316;27;20869;-54
2021/10/05 06:51:41;;;;;;;9.33;7.90;;;11.30;1.00;;;;;;5137189;27;20455;-56
2021/10/05 06:54:11;;;;;;;10.27;8.00;;;11.30;42.50;;;;;;5136530;27;20487;-58
2021/10/05 06:56:42;;;;;;;8.20;7.40;;;11.30;99.90;;;;;;5137339;28;20440;-57
2021/10/05 06:59:09;;;;;;;8.20;7.40;;;11.40;99.90;;;;;;5137260;28;20500;-57
2021/10/05 07:01:39;;;;;;;9.27;8.40;;;11.40;99.90;;;;;;5137800;28;20455;-59
2021/10/05 07:04:06;;;;;;;8.13;7.30;;;11.40;99.90;;;;;;5136809;28;20981;-58
2021/10/05 07:06:41;;;;;;;8.33;7.53;;;11.50;1.00;;;;;;5137226;28;20429;-60
2021/10/05 07:09:08;;;;;;;8.20;7.40;;;11.50;1.00;;;;;;5136240;28;20466;-58
2021/10/05 07:11:38;;;;;;;9.70;8.53;;;11.60;99.90;;;;;;5134262;28;20565;-58
2021/10/05 07:14:08;;;;;;;7.83;7.03;;;11.70;99.90;;;;;;5134908;28;20454;-59
2021/10/05 07:16:35;;;;;;;7.23;6.53;;;11.80;1.00;;;;;;5135826;27;20841;-59
2021/10/05 07:19:02;;;;;;;9.67;8.43;;;11.80;1.00;;;;;;5139693;27;20460;-57
2021/10/05 07:21:29;;;;;;;8.60;7.03;;;11.90;1.00;;;;;;5139911;27;20472;-60
2021/10/05 07:23:59;;;;;;;10.70;9.17;;;11.90;99.90;;;;;;5136843;27;20489;-56
2021/10/05 07:26:28;;;;;;;8.90;8.00;;;11.90;99.90;;;;;;5139566;27;20779;-58
2021/10/05 07:28:55;;;;;;;13.70;10.27;;;12.00;99.90;;;;;;5139931;27;20465;-57
2021/10/05 07:31:22;;;;;;;10.50;8.80;;;12.10;99.90;;;;;;5138993;27;20455;-57
2021/10/05 07:33:49;;;;;;;7.60;6.90;;;12.10;99.90;;;;;;5139837;27;20802;-58
2021/10/05 07:36:20;;;;;;;6.90;6.20;;;12.10;99.90;;;;;;5140440;27;20507;-58
2021/10/05 07:38:47;;;;;;;9.77;8.87;;;12.10;99.90;;;;;;5139528;27;20460;-56
2021/10/05 07:41:22;;;;;;;8.87;8.07;;;12.20;99.90;;;;;;5139341;27;20490;-58
2021/10/05 07:43:49;;;;;;;8.50;7.70;;;12.20;99.90;;;;;;5139631;27;20462;-58
2021/10/05 07:46:19;;;;;;;9.07;8.17;;;12.20;99.90;;;;;;5138323;27;20535;-57
2021/10/05 07:48:46;;;;;;;11.23;10.23;;;12.10;99.90;;;;;;5139067;27;20429;-57
2021/10/05 07:51:16;;;;;;;8.00;7.20;;;12.20;99.90;;;;;;5138902;27;20509;-56
2021/10/05 07:53:45;;;;;;;8.80;8.00;;;12.30;91.30;;;;;;5139429;27;20433;-56
2021/10/05 07:56:12;;;;;;;13.87;12.50;;;12.40;73.80;;;;;;5130096;27;20450;-55
2021/10/05 07:58:41;;;;;;;14.13;12.63;;;12.50;43.40;;;;;;5132497;27;20762;-57
2021/10/05 08:01:11;;;;;;;15.37;13.20;;;12.50;28.20;;;;;;5139190;27;20466;-55
2021/10/05 08:03:39;;;;;;;8.37;7.70;;;12.60;33.80;;;;;;5140430;27;20490;-57
2021/10/05 08:06:06;;;;;;;11.00;9.90;;;12.80;1.00;;;;;;5140641;27;20459;-56
2021/10/05 08:08:36;;;;;;;9.67;8.70;;;12.80;1.00;;;;;;5139044;27;20454;-55
2021/10/05 08:11:03;;;;;;;12.17;10.00;;;12.90;1.00;;;;;;5138902;27;20437;-57
2021/10/05 08:13:30;;;;;;;12.07;10.87;;;12.90;1.00;;;;;;5140120;27;20458;-55
2021/10/05 08:15:58;;;;;;;7.63;6.93;;;13.00;1.00;;;;;;5137912;27;20814;-57
2021/10/05 08:18:28;;;;;;;6.27;5.60;;;13.00;1.00;;;;;;5140019;27;20482;-54
2021/10/05 08:20:55;;;;;;;11.83;8.80;;;13.20;1.00;;;;;;5134163;27;20511;-56
2021/10/05 08:23:22;;;;;;;7.13;5.70;;;13.10;1.00;;;;;;5140524;27;20466;-56
2021/10/05 08:25:49;;;;;;;6.97;6.37;;;13.10;1.00;;;;;;5140390;27;20746;-57
2021/10/05 08:28:16;;;;;;;7.60;6.90;;;13.20;1.00;;;;;;5139714;27;20454;-56
2021/10/05 08:30:43;;;;;;;6.63;6.03;;;13.40;1.00;;;;;;5139806;27;20514;-56
2021/10/05 08:33:13;;;;;;;6.23;5.63;;;13.60;1.00;;;;;;5140330;27;20524;-54
2021/10/05 08:35:40;;;;;;;6.27;5.60;;;13.80;1.00;;;;;;5140196;27;20458;-56
2021/10/05 08:38:07;;;;;;;5.70;5.20;;;14.10;1.00;;;;;;5139693;27;20433;-58
2021/10/05 08:40:35;;;;;;;5.50;5.00;;;14.10;1.00;;;;;;5139468;27;20486;-53
2021/10/05 08:43:02;;;;;;;6.00;5.20;;;14.20;1.00;;;;;;5139648;27;20471;-55
2021/10/05 08:45:29;;;;;;;5.50;4.83;;;14.40;1.00;;;;;;5139896;27;20458;-53
2021/10/05 08:47:58;;;;;;;5.10;4.30;;;14.60;1.00;;;;;;5139586;27;20794;-54
2021/10/05 08:50:27;;;;;;;5.90;5.13;;;15.00;1.00;;;;;;5139086;27;20454;-55
2021/10/05 08:52:55;;;;;;;6.50;5.20;;;15.00;1.00;;;;;;5139789;27;20549;-56
2021/10/05 08:55:22;;;;;;;5.57;4.73;;;15.00;1.00;;;;;;5138874;27;20876;-54
2021/10/05 08:57:50;;;;;;;4.67;4.27;;;14.90;1.00;;;;;;5139209;27;20466;-54
2021/10/05 09:00:17;;;;;;;5.10;4.10;;;14.80;1.00;;;;;;5139190;27;20931;-56
2021/10/05 09:02:48;;;;;;;5.40;4.97;;;14.90;1.00;;;;;;5139119;27;20870;-54
2021/10/05 09:05:19;;;;;;;5.47;4.70;;;14.90;1.00;;;;;;5098902;28;20513;-57
2021/10/05 09:07:49;;;;;;;5.93;5.27;;;14.90;1.00;;;;;;5098631;28;20879;-53
2021/10/05 09:10:20;;;;;;;5.50;5.00;;;15.00;1.00;;;;;;5098095;28;20753;-54
2021/10/05 09:12:50;;;;;;;4.67;4.13;;;15.20;1.00;;;;;;5098069;28;20946;-57
2021/10/05 09:15:19;;;;;;;4.13;3.73;;;15.20;1.00;;;;;;5098370;28;20468;-55
2021/10/05 09:17:57;;;;;;;4.60;4.20;;;15.30;1.00;;;;;;5098069;28;20460;-53
2021/10/05 09:20:26;;;;;;;4.20;3.50;;;15.40;1.00;;;;;;5097949;28;20832;-56
2021/10/05 09:23:01;;;;;;;3.60;3.30;;;15.70;1.00;;;;;;5097667;28;20456;-57
2021/10/05 09:25:31;;;;;;;3.10;2.90;;;16.20;1.00;;;;;;5098068;28;20883;-56
2021/10/05 09:28:02;;;;;;;2.97;2.77;;;16.20;1.00;;;;;;5098379;28;20461;-57
2021/10/05 09:30:29;;;;;;;2.73;2.53;;;15.90;1.00;;;;;;5097825;28;20488;-58
2021/10/05 09:33:05;;;;;;;2.90;2.70;;;15.60;1.00;;;;;;5097697;28;20464;-56
2021/10/05 09:35:46;;;;;;;3.30;3.00;;;15.50;1.00;;;;;;5097815;28;20531;-54
2021/10/05 09:38:16;;;;;;;3.60;3.03;;;15.60;1.00;;;;;;5098017;28;20464;-55
2021/10/05 09:40:44;;;;;;;3.27;2.80;;;15.80;1.00;;;;;;5097016;28;20496;-51
2021/10/05 09:43:20;;;;;;;3.63;3.33;;;16.10;1.00;;;;;;5097504;28;20506;-56
2021/10/05 09:45:52;;;;;;;5.40;2.77;;;16.60;1.00;;;;;;5097425;28;20890;-55
2021/10/05 09:48:24;;;;;;;4.53;3.83;;;16.60;1.00;;;;;;5097616;28;20464;-54
2021/10/05 09:50:53;;;;;;;4.40;3.83;;;16.60;1.00;;;;;;5097296;28;20494;-57
2021/10/05 09:53:22;;;;;;;3.07;2.87;;;17.00;1.00;;;;;;5097490;28;20757;-58
2021/10/05 09:55:48;;;;;;;2.97;2.63;;;17.40;99.90;;;;;;5097005;28;20464;-54
2021/10/05 09:58:20;;;;;;;3.50;3.20;;;17.60;99.90;;;;;;5098153;28;20461;-54
2021/10/05 10:00:50;;;;;;;7.00;3.30;;;18.10;99.90;;;;;;5098106;28;20539;-58
2021/10/05 10:03:18;;;;;;;2.83;2.63;;;18.30;99.90;;;;;;5105974;27;20490;-58
2021/10/05 10:05:50;;;;;;;3.83;3.00;;;18.60;99.90;;;;;;5138348;27;20511;-56
2021/10/05 10:08:25;;;;;;;2.93;2.40;;;18.50;99.90;;;;;;5138515;27;20434;-51
2021/10/05 10:10:55;;;;;;;2.90;2.33;;;18.70;99.90;;;;;;5138547;27;20458;-54
2021/10/05 10:13:25;;;;;;;3.23;2.53;;;18.70;99.90;;;;;;5137992;27;20513;-56
2021/10/05 10:15:57;;;;;;;4.80;2.60;;;18.60;99.90;;;;;;5137894;27;20459;-57
2021/10/05 10:18:24;;;;;;;2.67;2.40;;;18.30;99.90;;;;;;5138058;27;20462;-55
2021/10/05 10:21:09;;;;;;;2.97;2.60;;;18.30;99.90;;;;;;5137743;27;20562;-57
2021/10/05 10:23:39;;;;;;;2.70;2.47;;;18.40;99.90;;;;;;5137364;27;20881;-57
2021/10/05 10:26:11;;;;;;;3.20;2.70;;;18.50;99.90;;;;;;5137700;27;20554;-54
2021/10/05 10:28:40;;;;;;;4.13;3.30;;;18.40;99.90;;;;;;5137916;27;20813;-55
2021/10/05 10:31:10;;;;;;;2.80;2.60;;;18.30;99.90;;;;;;5137714;27;20462;-52
2021/10/05 10:33:48;;;;;;;3.80;2.80;;;18.40;99.90;;;;;;5137738;27;20834;-58
2021/10/05 10:36:17;;;;;;;5.20;2.50;;;18.70;99.90;;;;;;5137497;27;20514;-56
2021/10/05 10:38:46;;;;;;;3.03;2.47;;;18.70;99.90;;;;;;5138075;27;20519;-51
2021/10/05 10:41:16;;;;;;;2.97;2.67;;;18.60;99.90;;;;;;5137535;27;20469;-55
2021/10/05 10:43:52;;;;;;;4.00;2.77;;;18.70;99.90;;;;;;5118338;28;20776;-56
2021/10/05 10:46:26;;;;;;;3.07;2.77;;;18.50;99.90;;;;;;5137546;27;20462;-56
2021/10/05 10:48:55;;;;;;;3.00;2.70;;;18.80;99.90;;;;;;5137615;27;20511;-56
2021/10/05 10:51:27;;;;;;;2.77;2.40;;;18.80;99.90;;;;;;5137521;27;20744;-56
2021/10/05 10:53:56;;;;;;;4.30;3.47;;;18.60;99.90;;;;;;5136214;27;20459;-56
2021/10/05 10:56:32;;;;;;;3.43;3.13;;;18.80;99.90;;;;;;5137795;27;20459;-56
2021/10/05 10:59:03;;;;;;;4.43;4.03;;;19.00;99.90;;;;;;5137327;28;20450;-58
2021/10/05 11:01:39;;;;;;;3.50;3.20;;;18.90;99.90;;;;;;5137239;28;20458;-51
2021/10/05 11:04:07;;;;;;;4.60;2.40;;;18.70;99.90;;;;;;5137193;27;20478;-54
2021/10/05 11:06:35;;;;;;;2.80;2.60;;;18.70;99.90;;;;;;5137159;28;20450;-57
2021/10/05 11:09:06;;;;;;;5.73;2.57;;;19.00;99.90;;;;;;5137087;28;20503;-54
2021/10/05 11:11:41;;;;;;;3.90;2.60;;;19.20;99.90;;;;;;5124738;28;20454;-57
2021/10/05 11:14:14;;;;;;;2.30;2.10;;;19.30;99.90;;;;;;5137466;28;20454;-53
2021/10/05 11:16:42;;;;;;;4.90;2.83;;;19.50;99.90;;;;;;5137496;28;20458;-55
2021/10/05 11:19:12;;;;;;;4.27;2.57;;;19.80;99.90;;;;;;5137272;28;20515;-57
2021/10/05 11:21:42;;;;;;;4.63;2.77;;;19.40;99.90;;;;;;5137380;28;20458;-56
2021/10/05 11:24:14;;;;;;;3.40;2.63;;;19.30;99.90;;;;;;5136821;28;20515;-53
2021/10/05 11:26:44;;;;;;;2.73;2.53;;;19.20;99.90;;;;;;5137435;28;20893;-56
2021/10/05 11:29:11;;;;;;;2.67;2.30;;;19.60;99.90;;;;;;5137289;28;20460;-54
2021/10/05 11:31:43;;;;;;;3.17;2.87;;;19.40;99.90;;;;;;5137236;28;20462;-54
2021/10/05 11:34:10;;;;;;;6.77;5.53;;;19.70;99.90;;;;;;5127873;28;20466;-53
2021/10/05 11:36:38;;;;;;;4.47;4.07;;;19.50;99.90;;;;;;5136768;28;20466;-57
2021/10/05 11:39:06;;;;;;;4.70;2.73;;;19.70;99.90;;;;;;5137193;28;20458;-54
2021/10/05 11:41:40;;;;;;;3.13;2.27;;;19.90;99.90;;;;;;5137182;28;20467;-57
2021/10/05 11:44:18;;;;;;;2.60;2.40;;;19.70;99.90;;;;;;5137106;28;20465;-57
2021/10/05 11:47:02;;;;;;;3.50;2.67;;;20.10;99.90;;;;;;5136641;28;20762;-55
2021/10/05 11:49:31;;;;;;;5.70;3.13;;;20.40;99.90;;;;;;5133575;28;20459;-54
2021/10/05 11:52:02;;;;;;;4.03;3.63;;;20.10;99.90;;;;;;5136395;28;20463;-56
2021/10/05 11:54:31;;;;;;;6.43;4.93;;;19.80;99.90;;;;;;5136767;28;20462;-54
2021/10/05 11:57:01;;;;;;;4.77;4.27;;;19.60;99.90;;;;;;5137099;28;20462;-56
2021/10/05 11:59:32;;;;;;;7.57;5.67;;;19.80;99.90;;;;;;5137375;28;20615;-56
2021/10/05 12:02:05;;;;;;;6.30;4.37;;;20.20;99.90;;;;;;5136557;27;20889;-58
2021/10/05 12:04:33;;;;;;;3.80;3.10;;;20.20;99.90;;;;;;5139890;27;20834;-56
2021/10/05 12:07:02;;;;;;;2.80;2.23;;;20.20;99.90;;;;;;5140577;27;20802;-56
2021/10/05 12:09:32;;;;;;;5.57;2.80;;;20.30;99.90;;;;;;5138769;27;20455;-56
2021/10/05 12:12:11;;;;;;;5.23;2.97;;;20.30;99.90;;;;;;5139920;27;20816;-55
2021/10/05 12:14:41;;;;;;;3.90;2.93;;;19.90;99.90;;;;;;5140416;27;20463;-55
2021/10/05 12:17:12;;;;;;;5.27;3.77;;;20.00;99.90;;;;;;5140569;27;20736;-55
2021/10/05 12:19:43;;;;;;;4.40;3.20;;;19.90;99.90;;;;;;5140347;27;20822;-52
2021/10/05 12:22:10;;;;;;;3.50;3.20;;;20.10;99.90;;;;;;5139884;27;20490;-56
2021/10/05 12:24:44;;;;;;;4.20;3.30;;;20.20;99.90;;;;;;5140104;27;20455;-56
2021/10/05 12:27:17;;;;;;;5.13;2.67;;;20.30;99.90;;;;;;5140260;27;20873;-53
2021/10/05 12:30:02;;;;;;;2.73;2.43;;;19.90;99.90;;;;;;5139875;27;20462;-56
2021/10/05 12:32:44;;;;;;;4.00;2.93;;;19.50;99.90;;;;;;5139354;27;20462;-55
2021/10/05 12:35:27;;;;;;;3.80;3.50;;;19.70;99.90;;;;;;5140006;27;20488;-52
2021/10/05 12:38:00;;;;;;;8.33;3.23;;;19.60;99.90;;;;;;5140289;27;20470;-54
2021/10/05 12:40:42;;;;;;;3.67;3.37;;;18.70;99.90;;;;;;5139331;27;20586;-56
2021/10/05 12:43:11;;;;;;;4.00;3.60;;;18.50;99.90;;;;;;5139843;27;20462;-56
2021/10/05 12:45:53;;;;;;;2.70;2.50;;;18.10;99.90;;;;;;5139663;27;20458;-56
2021/10/05 12:48:34;;;;;;;7.03;2.53;;;17.90;99.90;;;;;;5139792;27;20459;-56
2021/10/05 12:51:12;;;;;;;5.80;3.33;;;17.90;99.90;;;;;;5138890;27;20568;-55
2021/10/05 12:53:41;;;;;;;5.80;3.27;;;18.20;99.90;;;;;;5136936;27;20466;-55
2021/10/05 12:56:08;;;;;;;5.03;4.40;;;17.90;99.90;;;;;;5139117;27;20473;-55